Airfield :
LOGIN :

Register | Disclaimer

   EN    FR    IT 

 










Legend :    VFR   Marginal VFR   IFR   Intensive IFR   Very Intensive IFR
Visi :
Ceiling :
>= 8 km
>= 3000ft
5 to 8 km
1000 to 3000 ft
1500m to 5 km
500 to 1000 ft
800 to 1500m
200 to 500 ft
< 800m
< 200 ft
Symbols :   Thunderstorms  Fog  Heavy snow  Heavy precipitations  Wind > 20 kt
SIGMETs :     Misc.  Thunderstorms  Icing  Turbulence  Mountain Waves  Volcanic Ashes






- Airport Elevation : 614 ft
- IATA code : CRL


EBCI - Charleroi

CURRENT METAR :
  • 031420Z VRB03KT 9999 FEW030 BKN040 19/11 Q1013 NOSIG

EXPIRED METARs :
  • 031350Z VRB03KT 9999 FEW030 BKN040 19/10 Q1013 NOSIG
  • 031320Z 32004KT 290V360 9999 FEW030 BKN040 19/11 Q1013 NOSIG
  • 031250Z 30004KT 220V020 9999 FEW030 19/12 Q1013 NOSIG
  • 031220Z 35005KT 320V040 9999 FEW030 18/12 Q1013 NOSIG
  • 031150Z 32006KT 270V030 9999 FEW022 SCT035 17/11 Q1013 NOSIG

TAF COR TAF EBCI
Valid from the 03 at 12:00 until the 04 at 18:00 UTC


031411Z 0312/0418 33005KT 9999 SCT030TCU
TEMPO 0312/0321 3500 SHRA
PROB30 0312/0321 VRB15G25KT 2500 TSRA SCT007 BKN014CB
TEMPO 0402/0407 4000 BR BKN007
TEMPO 0411/0418 3500 SHRA
PROB30
TEMPO 0412/0418 VRB15G25KT 2500 TSRA SCT007 BKN014CB



MET'MAP, your aeronautical weather chart ! - Copyright ORBIFLY December 2007 - Disclaimer

ORBIFLY MET'MAP TEAM :

Programming & Development : Alexandra Zaïnal
Concept & original design : Baudouin d'Aumeries
Assistance for programming : Marc-Olivier Méhu
Technical & hardware support : Manuel Goepfert

Contact : metmap@orbifly.com




SOURCES & CREDITS :

   NOAA